createdAt,value
2022-11-27T00:01:26.960Z,0.00
2022-11-27T00:03:56.894Z,0.10
2022-11-27T00:06:27.769Z,0.10
2022-11-27T00:09:02.076Z,0.10
2022-11-27T00:11:32.396Z,0.10
2022-11-27T00:14:00.170Z,0.20
2022-11-27T00:16:28.777Z,0.20
2022-11-27T00:18:56.627Z,0.20
2022-11-27T00:21:26.199Z,0.20
2022-11-27T00:23:54.955Z,0.20
2022-11-27T00:26:24.502Z,0.30
2022-11-27T00:28:51.621Z,0.20
2022-11-27T00:31:21.703Z,0.20
2022-11-27T00:33:49.499Z,0.30
2022-11-27T00:36:16.167Z,0.20
2022-11-27T00:38:43.288Z,0.30
2022-11-27T00:41:23.108Z,0.30
2022-11-27T00:43:57.776Z,0.30
2022-11-27T00:46:34.782Z,0.30
2022-11-27T00:49:08.738Z,0.30
2022-11-27T00:51:36.011Z,0.30
2022-11-27T00:54:03.562Z,0.30
2022-11-27T00:56:34.076Z,0.30
2022-11-27T00:59:01.167Z,0.30
2022-11-27T01:01:33.859Z,0.30
2022-11-27T01:04:02.334Z,0.30
2022-11-27T01:06:30.246Z,0.30
2022-11-27T01:08:59.540Z,0.30
2022-11-27T01:11:30.013Z,0.30
2022-11-27T01:13:59.159Z,0.30
2022-11-27T01:16:28.141Z,0.30
2022-11-27T01:18:58.344Z,0.30
2022-11-27T01:21:27.021Z,0.30
2022-11-27T01:23:54.284Z,0.30
2022-11-27T01:26:21.584Z,0.30
2022-11-27T01:28:55.275Z,0.30
2022-11-27T01:31:28.627Z,0.30
2022-11-27T01:34:00.996Z,0.30
2022-11-27T01:36:28.878Z,0.30
2022-11-27T01:38:55.920Z,0.30
2022-11-27T01:41:26.053Z,0.40
2022-11-27T01:43:55.839Z,0.40
2022-11-27T01:46:35.096Z,0.40
2022-11-27T01:49:05.706Z,0.30
2022-11-27T01:51:32.762Z,0.30
2022-11-27T01:53:59.790Z,0.30
2022-11-27T01:56:29.049Z,0.30
2022-11-27T01:58:58.251Z,0.20
2022-11-27T02:01:26.284Z,0.20
2022-11-27T02:03:58.004Z,0.10
2022-11-27T02:06:25.823Z,0.10
2022-11-27T02:08:53.241Z,0.10
2022-11-27T02:11:50.126Z,0.10
2022-11-27T02:14:37.882Z,0.20
2022-11-27T02:17:30.183Z,0.10
2022-11-27T02:20:36.078Z,0.10
2022-11-27T02:23:14.854Z,0.20
2022-11-27T02:25:52.507Z,0.20
2022-11-27T02:28:47.555Z,0.20
2022-11-27T02:31:33.040Z,0.20
2022-11-27T02:34:21.477Z,0.20
2022-11-27T02:37:00.333Z,0.20
2022-11-27T02:39:35.188Z,0.20
2022-11-27T02:42:11.682Z,0.20
2022-11-27T02:44:45.357Z,0.20
2022-11-27T02:47:18.160Z,0.20
2022-11-27T02:49:47.477Z,0.20
2022-11-27T02:52:19.181Z,0.10
2022-11-27T02:54:55.759Z,0.10
2022-11-27T02:57:25.035Z,0.10
2022-11-27T02:59:57.438Z,0.10
2022-11-27T03:02:32.522Z,0.10
2022-11-27T03:05:02.646Z,0.10
2022-11-27T03:07:52.048Z,0.10
2022-11-27T03:10:26.981Z,0.10
2022-11-27T03:12:53.709Z,0.10
2022-11-27T03:15:23.421Z,0.10
2022-11-27T03:17:59.657Z,0.10
2022-11-27T03:20:33.818Z,0.10
2022-11-27T03:23:00.735Z,0.10
2022-11-27T03:25:27.566Z,0.10
2022-11-27T03:28:10.510Z,0.10
2022-11-27T03:30:37.327Z,0.10
2022-11-27T03:33:05.228Z,0.10
2022-11-27T03:35:32.090Z,0.10
2022-11-27T03:37:58.950Z,0.10
2022-11-27T03:40:33.763Z,0.10
2022-11-27T03:43:16.727Z,0.10
2022-11-27T03:46:00.716Z,0.10
2022-11-27T03:48:48.197Z,0.20
2022-11-27T03:51:45.070Z,0.10
2022-11-27T03:54:34.885Z,0.20
2022-11-27T03:57:14.000Z,0.20
2022-11-27T03:59:44.453Z,0.20
2022-11-27T04:02:15.301Z,0.20
2022-11-27T04:04:42.388Z,0.20
2022-11-27T04:07:20.114Z,0.10
2022-11-27T04:09:54.894Z,0.10
2022-11-27T04:12:21.694Z,0.10
2022-11-27T04:14:48.601Z,0.10
2022-11-27T04:17:15.453Z,0.10
2022-11-27T04:19:43.314Z,0.00
2022-11-27T04:22:11.151Z,0.00
2022-11-27T04:24:38.028Z,0.00
2022-11-27T04:27:07.250Z,0.00
2022-11-27T04:29:34.070Z,0.00
2022-11-27T04:32:00.786Z,0.00
2022-11-27T04:34:27.549Z,0.00
2022-11-27T04:36:54.361Z,0.00
2022-11-27T04:39:22.822Z,0.00
2022-11-27T04:41:49.590Z,0.00
2022-11-27T04:44:19.495Z,0.00
2022-11-27T04:46:46.279Z,0.00
2022-11-27T04:49:13.264Z,-0.10
2022-11-27T04:51:40.087Z,-0.10
2022-11-27T04:54:06.843Z,-0.10
2022-11-27T04:56:34.557Z,-0.10
2022-11-27T04:59:01.350Z,-0.10
2022-11-27T05:01:28.234Z,-0.10
2022-11-27T05:03:55.037Z,-0.20
2022-11-27T05:06:22.779Z,-0.20
2022-11-27T05:08:49.708Z,-0.20
2022-11-27T05:11:17.897Z,-0.10
2022-11-27T05:13:44.961Z,-0.10
2022-11-27T05:16:12.996Z,-0.10
2022-11-27T05:18:40.765Z,-0.10
2022-11-27T05:21:08.109Z,-0.10
2022-11-27T05:23:35.351Z,-0.10
2022-11-27T05:26:06.914Z,-0.10
2022-11-27T05:28:33.696Z,-0.10
2022-11-27T05:31:00.583Z,-0.20
2022-11-27T05:33:28.924Z,-0.10
2022-11-27T05:35:55.869Z,-0.10
2022-11-27T05:38:22.541Z,-0.20
2022-11-27T05:40:49.237Z,-0.20
2022-11-27T05:43:15.954Z,-0.20
2022-11-27T05:45:42.685Z,-0.20
2022-11-27T05:48:09.471Z,-0.10
2022-11-27T05:50:36.182Z,-0.10
2022-11-27T05:53:02.901Z,-0.20
2022-11-27T05:55:29.821Z,-0.20
2022-11-27T05:57:56.561Z,-0.20
2022-11-27T06:00:23.429Z,-0.10
2022-11-27T06:02:50.196Z,-0.10
2022-11-27T06:05:18.538Z,-0.10
2022-11-27T06:07:45.258Z,-0.10
2022-11-27T06:10:12.092Z,-0.10
2022-11-27T06:12:38.793Z,-0.10
2022-11-27T06:15:05.814Z,-0.10
2022-11-27T06:17:32.628Z,-0.10
2022-11-27T06:19:59.389Z,0.00
2022-11-27T06:22:26.131Z,0.00
2022-11-27T06:24:55.852Z,-0.10
2022-11-27T06:27:23.957Z,-0.10
2022-11-27T06:29:50.827Z,-0.10
2022-11-27T06:32:18.618Z,-0.10
2022-11-27T06:34:51.209Z,0.00
2022-11-27T06:37:20.347Z,-0.10
2022-11-27T06:39:48.945Z,0.00
2022-11-27T06:42:18.885Z,0.00
2022-11-27T06:44:47.001Z,0.00
2022-11-27T06:47:13.820Z,0.00
2022-11-27T06:49:40.544Z,0.00
2022-11-27T06:52:08.351Z,0.00
2022-11-27T06:54:35.103Z,0.00
2022-11-27T06:57:02.060Z,0.00
2022-11-27T06:59:29.880Z,0.00
2022-11-27T07:02:01.860Z,0.00
2022-11-27T07:04:30.786Z,0.00
2022-11-27T07:06:58.802Z,0.00
2022-11-27T07:09:25.987Z,0.00
2022-11-27T07:11:53.047Z,0.00
2022-11-27T07:14:19.752Z,0.10
2022-11-27T07:16:46.696Z,0.10
2022-11-27T07:19:15.017Z,0.10
2022-11-27T07:21:41.819Z,0.10
2022-11-27T07:24:08.773Z,0.20
2022-11-27T07:26:35.528Z,0.30
2022-11-27T07:29:02.308Z,0.30
2022-11-27T07:31:35.240Z,0.30
2022-11-27T07:34:05.710Z,0.30
2022-11-27T07:36:33.790Z,0.30
2022-11-27T07:39:03.865Z,0.30
2022-11-27T07:41:33.913Z,0.30
2022-11-27T07:44:02.731Z,0.40
2022-11-27T07:46:30.493Z,0.40
2022-11-27T07:48:57.255Z,0.40
2022-11-27T07:51:23.983Z,0.50
2022-11-27T07:53:52.928Z,0.50
2022-11-27T07:56:20.034Z,0.50
2022-11-27T07:58:52.801Z,0.50
2022-11-27T08:01:25.751Z,0.60
2022-11-27T08:03:52.592Z,0.60
2022-11-27T08:06:26.021Z,0.60
2022-11-27T08:08:55.896Z,0.60
2022-11-27T08:11:29.861Z,0.60
2022-11-27T08:13:58.932Z,0.60
2022-11-27T08:16:26.401Z,0.60
2022-11-27T08:18:54.554Z,0.60
2022-11-27T08:21:25.421Z,0.70
2022-11-27T08:23:52.573Z,0.80
2022-11-27T08:26:19.982Z,0.80
2022-11-27T08:28:46.891Z,0.80
2022-11-27T08:31:15.608Z,0.90
2022-11-27T08:33:42.397Z,1.00
2022-11-27T08:36:13.657Z,1.10
2022-11-27T08:38:51.179Z,1.10
2022-11-27T08:41:18.200Z,1.10
2022-11-27T08:43:44.980Z,1.20
2022-11-27T08:46:12.281Z,1.20
2022-11-27T08:48:39.302Z,1.20
2022-11-27T08:51:08.911Z,1.20
2022-11-27T08:53:37.675Z,1.20
2022-11-27T08:56:09.012Z,1.30
2022-11-27T08:58:37.392Z,1.40
2022-11-27T09:01:15.848Z,1.40
2022-11-27T09:03:43.800Z,1.40
2022-11-27T09:06:12.967Z,1.50
2022-11-27T09:08:41.387Z,1.50
2022-11-27T09:11:09.227Z,1.60
2022-11-27T09:13:37.050Z,1.50
2022-11-27T09:16:09.362Z,1.60
2022-11-27T09:18:36.273Z,1.70
2022-11-27T09:21:06.629Z,1.70
2022-11-27T09:23:34.157Z,1.80
2022-11-27T09:26:02.638Z,1.80
2022-11-27T09:28:31.521Z,1.80
2022-11-27T09:31:02.313Z,1.90
2022-11-27T09:33:31.453Z,1.90
2022-11-27T09:35:58.499Z,2.00
2022-11-27T09:38:25.345Z,2.00
2022-11-27T09:40:59.260Z,2.10
2022-11-27T09:43:40.879Z,2.10
2022-11-27T09:46:19.660Z,2.20
2022-11-27T09:48:50.414Z,2.20
2022-11-27T09:51:47.333Z,2.20
2022-11-27T09:54:24.142Z,2.30
2022-11-27T09:56:54.583Z,2.40
2022-11-27T09:59:25.690Z,2.40
2022-11-27T10:01:58.539Z,2.40
2022-11-27T10:04:25.517Z,2.50
2022-11-27T10:07:03.128Z,2.50
2022-11-27T10:09:49.706Z,2.50
2022-11-27T10:12:33.231Z,2.60
2022-11-27T10:15:26.256Z,2.60
2022-11-27T10:18:04.582Z,2.70
2022-11-27T10:20:33.833Z,2.70
2022-11-27T10:23:19.445Z,2.80
2022-11-27T10:25:54.488Z,2.80
2022-11-27T10:28:59.846Z,2.90
2022-11-27T10:31:50.240Z,2.90
2022-11-27T10:34:43.421Z,2.90
2022-11-27T10:37:30.526Z,2.90
2022-11-27T10:40:03.248Z,3.00
2022-11-27T10:42:37.967Z,3.00
2022-11-27T10:45:23.848Z,3.00
2022-11-27T10:47:50.984Z,3.10
2022-11-27T10:50:19.325Z,3.10
2022-11-27T10:53:07.968Z,3.10
2022-11-27T10:55:56.960Z,3.20
2022-11-27T10:58:37.377Z,3.30
2022-11-27T11:01:17.700Z,3.30
2022-11-27T11:03:44.781Z,3.40
2022-11-27T11:06:31.774Z,3.50
2022-11-27T11:09:25.107Z,3.60
2022-11-27T11:11:54.026Z,3.70
2022-11-27T11:14:27.263Z,3.70
2022-11-27T11:16:55.096Z,3.80
2022-11-27T11:19:43.889Z,3.80
2022-11-27T11:22:16.249Z,3.80
2022-11-27T11:24:51.994Z,3.90
2022-11-27T11:27:30.666Z,3.90
2022-11-27T11:30:06.783Z,3.90
2022-11-27T11:32:40.319Z,3.90
2022-11-27T11:35:30.714Z,3.80
2022-11-27T11:37:58.776Z,3.80
2022-11-27T11:40:32.589Z,3.80
2022-11-27T11:43:10.040Z,3.70
2022-11-27T11:45:46.879Z,3.80
2022-11-27T11:48:25.704Z,3.80
2022-11-27T11:51:16.420Z,3.90
2022-11-27T11:54:00.601Z,3.90
2022-11-27T11:56:32.915Z,3.90
2022-11-27T11:59:21.104Z,4.00
2022-11-27T12:02:28.926Z,4.00
2022-11-27T12:05:04.620Z,4.00
2022-11-27T12:08:11.703Z,4.00
2022-11-27T12:11:08.902Z,4.20
2022-11-27T12:14:14.346Z,4.20
2022-11-27T12:16:56.171Z,4.30
2022-11-27T12:19:54.739Z,4.40
2022-11-27T12:23:00.481Z,4.30
2022-11-27T12:26:02.310Z,4.30
2022-11-27T12:28:53.249Z,4.20
2022-11-27T12:31:49.378Z,4.10
2022-11-27T12:34:56.946Z,4.20
2022-11-27T12:37:56.177Z,4.30
2022-11-27T12:40:54.872Z,4.20
2022-11-27T12:43:30.290Z,4.30
2022-11-27T12:46:16.735Z,4.30
2022-11-27T12:49:05.873Z,4.40
2022-11-27T12:51:39.640Z,4.30
2022-11-27T12:54:15.456Z,4.40
2022-11-27T12:57:10.616Z,4.40
2022-11-27T12:59:50.804Z,4.50
2022-11-27T13:02:53.316Z,4.40
2022-11-27T13:05:24.713Z,4.50
2022-11-27T13:08:13.151Z,4.50
2022-11-27T13:10:45.412Z,4.50
2022-11-27T13:13:13.145Z,4.50
2022-11-27T13:15:53.101Z,4.60
2022-11-27T13:18:36.792Z,4.60
2022-11-27T13:21:15.359Z,4.60
2022-11-27T13:23:47.100Z,4.60
2022-11-27T13:26:42.977Z,4.50
2022-11-27T13:29:25.216Z,4.50
2022-11-27T13:32:01.011Z,4.50
2022-11-27T13:34:30.997Z,4.40
2022-11-27T13:37:07.145Z,4.30
2022-11-27T13:39:43.227Z,4.30
2022-11-27T13:42:12.937Z,4.30
2022-11-27T13:44:51.968Z,4.30
2022-11-27T13:47:27.209Z,4.30
2022-11-27T13:50:12.001Z,4.20
2022-11-27T13:52:59.897Z,4.10
2022-11-27T13:55:34.600Z,4.10
2022-11-27T13:58:05.676Z,4.00
2022-11-27T14:00:35.653Z,4.00
2022-11-27T14:03:03.611Z,3.90
2022-11-27T14:05:47.134Z,3.90
2022-11-27T14:08:22.668Z,3.90
2022-11-27T14:10:54.083Z,3.80
2022-11-27T14:13:27.368Z,3.80
2022-11-27T14:16:02.784Z,3.70
2022-11-27T14:18:37.271Z,3.70
2022-11-27T14:21:05.280Z,3.70
2022-11-27T14:23:35.836Z,3.70
2022-11-27T14:26:15.138Z,3.70
2022-11-27T14:28:49.743Z,3.70
2022-11-27T14:31:29.515Z,3.60
2022-11-27T14:34:14.785Z,3.60
2022-11-27T14:36:43.475Z,3.60
2022-11-27T14:39:25.315Z,3.60
2022-11-27T14:42:04.577Z,3.60
2022-11-27T14:44:32.366Z,3.60
2022-11-27T14:47:06.856Z,3.60
2022-11-27T14:49:34.431Z,3.60
2022-11-27T14:52:05.671Z,3.70
2022-11-27T14:54:37.606Z,3.60
2022-11-27T14:57:07.119Z,3.60
2022-11-27T14:59:35.100Z,3.60
2022-11-27T15:02:29.393Z,3.70
2022-11-27T15:05:07.776Z,3.70
2022-11-27T15:07:45.252Z,3.70
2022-11-27T15:10:35.722Z,3.60
2022-11-27T15:13:07.329Z,3.60
2022-11-27T15:15:42.150Z,3.60
2022-11-27T15:18:14.339Z,3.60
2022-11-27T15:20:45.793Z,3.60
2022-11-27T15:23:26.611Z,3.60
2022-11-27T15:26:01.535Z,3.60
2022-11-27T15:28:51.667Z,3.60
2022-11-27T15:31:28.171Z,3.50
2022-11-27T15:34:13.323Z,3.50
2022-11-27T15:36:56.767Z,3.50
2022-11-27T15:39:48.675Z,3.50
2022-11-27T15:42:17.540Z,3.50
2022-11-27T15:44:45.537Z,3.50
2022-11-27T15:47:40.473Z,3.50
2022-11-27T15:50:17.331Z,3.50
2022-11-27T15:52:44.270Z,3.50
2022-11-27T15:55:17.642Z,3.50
2022-11-27T15:57:46.871Z,3.50
2022-11-27T16:00:16.323Z,3.50
2022-11-27T16:02:43.201Z,3.50
2022-11-27T16:05:12.248Z,3.50
2022-11-27T16:07:39.320Z,3.50
2022-11-27T16:10:06.710Z,3.50
2022-11-27T16:12:41.475Z,3.50
2022-11-27T16:15:18.080Z,3.50
2022-11-27T16:17:49.485Z,3.50
2022-11-27T16:20:17.383Z,3.40
2022-11-27T16:22:44.104Z,3.50
2022-11-27T16:25:10.877Z,3.50
2022-11-27T16:27:37.703Z,3.50
2022-11-27T16:30:05.052Z,3.50
2022-11-27T16:32:38.035Z,3.50
2022-11-27T16:35:07.345Z,3.50
2022-11-27T16:37:34.107Z,3.50
2022-11-27T16:40:00.859Z,3.50
2022-11-27T16:42:28.958Z,3.50
2022-11-27T16:44:55.716Z,3.50
2022-11-27T16:47:22.454Z,3.50
2022-11-27T16:49:49.864Z,3.50
2022-11-27T16:52:17.595Z,3.50
2022-11-27T16:54:45.354Z,3.50
2022-11-27T16:57:12.085Z,3.40
2022-11-27T16:59:38.918Z,3.50
2022-11-27T17:02:06.133Z,3.40
2022-11-27T17:04:33.824Z,3.50
2022-11-27T17:07:00.804Z,3.50
2022-11-27T17:09:29.393Z,3.50
2022-11-27T17:11:57.224Z,3.50
2022-11-27T17:14:24.038Z,3.50
2022-11-27T17:16:50.879Z,3.50
2022-11-27T17:19:18.585Z,3.50
2022-11-27T17:21:46.349Z,3.50
2022-11-27T17:24:16.141Z,3.50
2022-11-27T17:26:43.907Z,3.50
2022-11-27T17:29:14.840Z,3.40
2022-11-27T17:31:42.123Z,3.50
2022-11-27T17:34:11.773Z,3.50
2022-11-27T17:36:39.935Z,3.50
2022-11-27T17:39:11.886Z,3.50
2022-11-27T17:41:40.511Z,3.50
2022-11-27T17:44:08.146Z,3.50
2022-11-27T17:46:35.392Z,3.40
2022-11-27T17:49:03.464Z,3.40
2022-11-27T17:51:32.927Z,3.40
2022-11-27T17:54:01.302Z,3.40
2022-11-27T17:56:29.153Z,3.40
2022-11-27T17:58:56.052Z,3.40
2022-11-27T18:01:25.175Z,3.40
2022-11-27T18:03:55.027Z,3.40
2022-11-27T18:06:25.477Z,3.40
2022-11-27T18:08:52.334Z,3.40
2022-11-27T18:11:22.372Z,3.40
2022-11-27T18:13:50.061Z,3.40
2022-11-27T18:16:36.588Z,3.40
2022-11-27T18:19:06.823Z,3.40
2022-11-27T18:21:36.170Z,3.30
2022-11-27T18:29:39.638Z,3.30
2022-11-27T18:32:06.926Z,3.30
2022-11-27T18:34:35.000Z,3.30
2022-11-27T18:37:03.588Z,3.20
2022-11-27T18:39:34.199Z,3.20
2022-11-27T18:42:03.531Z,3.20
2022-11-27T18:44:30.467Z,3.10
2022-11-27T18:46:57.307Z,3.10
2022-11-27T18:49:24.698Z,3.10
2022-11-27T18:51:53.115Z,3.00
2022-11-27T18:54:20.900Z,3.00
2022-11-27T18:56:48.072Z,3.00
2022-11-27T18:59:16.229Z,3.00
2022-11-27T19:01:43.111Z,2.90
2022-11-27T19:04:11.495Z,2.90
2022-11-27T19:06:42.139Z,2.90
2022-11-27T19:09:10.910Z,2.80
2022-11-27T19:11:38.515Z,2.80
2022-11-27T19:14:05.900Z,2.80
2022-11-27T19:16:41.971Z,2.80
2022-11-27T19:19:30.041Z,2.80
2022-11-27T19:21:56.294Z,2.80
2022-11-27T19:24:23.044Z,2.80
2022-11-27T19:26:49.818Z,2.80
2022-11-27T19:29:23.785Z,2.80
2022-11-27T19:31:52.211Z,2.80
2022-11-27T19:34:19.392Z,2.70
2022-11-27T19:36:48.204Z,2.70
2022-11-27T19:39:15.899Z,2.80
2022-11-27T19:41:43.383Z,2.70
2022-11-27T19:44:13.028Z,2.80
2022-11-27T19:46:42.009Z,2.70
2022-11-27T19:49:13.782Z,2.80
2022-11-27T19:51:41.494Z,2.70
2022-11-27T19:54:10.850Z,2.80
2022-11-27T19:56:40.475Z,2.80
2022-11-27T19:59:10.749Z,2.80
2022-11-27T20:01:39.071Z,2.80
2022-11-27T20:04:06.614Z,2.80
2022-11-27T20:06:39.808Z,2.80
2022-11-27T20:09:07.111Z,2.80
2022-11-27T20:11:38.177Z,2.80
2022-11-27T20:14:06.205Z,2.80
2022-11-27T20:16:35.012Z,2.80
2022-11-27T20:19:05.476Z,2.80
2022-11-27T20:21:32.596Z,2.80
2022-11-27T20:23:59.365Z,2.80
2022-11-27T20:26:28.343Z,2.80
2022-11-27T20:28:56.723Z,2.80
2022-11-27T20:31:30.695Z,2.80
2022-11-27T20:34:00.779Z,2.80
2022-11-27T20:36:30.649Z,2.80
2022-11-27T20:38:59.004Z,2.80
2022-11-27T20:41:28.518Z,2.80
2022-11-27T20:43:58.164Z,2.80
2022-11-27T20:46:25.939Z,2.80
2022-11-27T20:48:54.200Z,2.80
2022-11-27T20:51:24.242Z,2.80
2022-11-27T20:53:51.465Z,2.70
2022-11-27T20:56:22.339Z,2.70
2022-11-27T20:58:50.142Z,2.70
2022-11-27T21:01:18.394Z,2.80
2022-11-27T21:03:46.367Z,2.70
2022-11-27T21:06:17.095Z,2.70
2022-11-27T21:08:46.037Z,2.70
2022-11-27T21:11:16.764Z,2.60
2022-11-27T21:13:53.028Z,2.60
2022-11-27T21:16:19.917Z,2.70
2022-11-27T21:18:46.987Z,2.70
2022-11-27T21:21:14.180Z,2.70
2022-11-27T21:23:42.356Z,2.70
2022-11-27T21:26:09.826Z,2.70
2022-11-27T21:28:36.943Z,2.70
2022-11-27T21:31:16.958Z,2.60
2022-11-27T21:33:52.658Z,2.70
2022-11-27T21:36:22.225Z,2.60
2022-11-27T21:38:49.590Z,2.60
2022-11-27T21:41:17.852Z,2.60
2022-11-27T21:43:45.746Z,2.60
2022-11-27T21:46:17.210Z,2.60
2022-11-27T21:48:45.739Z,2.50
2022-11-27T21:51:15.237Z,2.50
2022-11-27T21:53:46.053Z,2.50
2022-11-27T21:56:15.041Z,2.50
2022-11-27T21:58:41.873Z,2.50
2022-11-27T22:01:13.611Z,2.50
2022-11-27T22:03:42.702Z,2.50
2022-11-27T22:06:15.899Z,2.40
2022-11-27T22:08:47.561Z,2.40
2022-11-27T22:11:18.836Z,2.40
2022-11-27T22:13:45.750Z,2.40
2022-11-27T22:16:21.133Z,2.40
2022-11-27T22:18:48.906Z,2.30
2022-11-27T22:21:16.429Z,2.30
2022-11-27T22:23:43.980Z,2.30
2022-11-27T22:26:13.813Z,2.30
2022-11-27T22:28:41.281Z,2.30
2022-11-27T22:31:13.150Z,2.30
2022-11-27T22:33:41.502Z,2.30
2022-11-27T22:36:15.561Z,2.30
2022-11-27T22:38:44.751Z,2.30
2022-11-27T22:41:12.281Z,2.30
2022-11-27T22:43:41.391Z,2.30
2022-11-27T22:46:13.155Z,2.30
2022-11-27T22:48:44.561Z,2.30
2022-11-27T22:51:11.905Z,2.30
2022-11-27T22:53:40.805Z,2.30
2022-11-27T22:56:12.546Z,2.30
2022-11-27T22:58:41.913Z,2.30
2022-11-27T23:01:23.758Z,2.30
2022-11-27T23:03:51.084Z,2.30
2022-11-27T23:06:20.338Z,2.30
2022-11-27T23:08:48.244Z,2.30
2022-11-27T23:11:26.472Z,2.40
2022-11-27T23:13:55.552Z,2.40
2022-11-27T23:16:22.885Z,2.40
2022-11-27T23:18:50.848Z,2.40
2022-11-27T23:21:20.745Z,2.40
2022-11-27T23:23:47.638Z,2.40
2022-11-27T23:26:19.973Z,2.40
2022-11-27T23:28:50.929Z,2.40
2022-11-27T23:31:31.915Z,2.40
2022-11-27T23:34:01.879Z,2.40
2022-11-27T23:36:30.761Z,2.40
2022-11-27T23:39:02.992Z,2.40
2022-11-27T23:41:32.148Z,2.40
2022-11-27T23:43:59.373Z,2.40
2022-11-27T23:46:28.408Z,2.40
2022-11-27T23:48:57.082Z,2.40
2022-11-27T23:51:29.983Z,2.30
2022-11-27T23:53:57.651Z,2.30
2022-11-27T23:56:25.411Z,2.30
2022-11-27T23:58:53.386Z,2.30
